createdAt,value
2018-12-09T00:00:45.688Z,968.07
2018-12-09T00:01:45.833Z,968.01
2018-12-09T00:02:45.987Z,967.96
2018-12-09T00:03:46.133Z,967.96
2018-12-09T00:04:46.281Z,967.93
2018-12-09T00:05:46.426Z,967.92
2018-12-09T00:06:46.575Z,967.94
2018-12-09T00:07:46.721Z,967.86
2018-12-09T00:08:46.866Z,967.91
2018-12-09T00:09:47.012Z,967.87
2018-12-09T00:10:47.156Z,967.95
2018-12-09T00:11:47.302Z,967.93
2018-12-09T00:12:47.449Z,967.92
2018-12-09T00:13:47.595Z,967.92
2018-12-09T00:14:47.743Z,967.83
2018-12-09T00:15:47.889Z,967.80
2018-12-09T00:16:48.038Z,967.73
2018-12-09T00:17:48.185Z,967.77
2018-12-09T00:18:48.334Z,967.72
2018-12-09T00:19:48.478Z,967.74
2018-12-09T00:20:48.623Z,967.72
2018-12-09T00:21:48.769Z,967.66
2018-12-09T00:22:48.917Z,967.61
2018-12-09T00:23:49.065Z,967.56
2018-12-09T00:24:49.211Z,967.53
2018-12-09T00:25:49.356Z,967.44
2018-12-09T00:26:49.504Z,967.47
2018-12-09T00:27:49.640Z,967.40
2018-12-09T00:28:49.802Z,967.33
2018-12-09T00:29:49.968Z,967.27
2018-12-09T00:30:50.113Z,967.28
2018-12-09T00:31:50.261Z,967.32
2018-12-09T00:32:50.410Z,967.26
2018-12-09T00:33:50.559Z,967.22
2018-12-09T00:34:50.707Z,967.25
2018-12-09T00:35:50.855Z,967.25
2018-12-09T00:36:51.001Z,967.16
2018-12-09T00:37:51.152Z,967.20
2018-12-09T00:38:51.298Z,967.22
2018-12-09T00:39:51.441Z,967.19
2018-12-09T00:40:51.583Z,967.20
2018-12-09T00:41:51.730Z,967.24
2018-12-09T00:42:51.875Z,967.16
2018-12-09T00:43:52.021Z,967.23
2018-12-09T00:44:52.167Z,967.24
2018-12-09T00:45:52.316Z,967.25
2018-12-09T00:46:52.460Z,967.30
2018-12-09T00:47:52.617Z,967.29
2018-12-09T00:48:52.758Z,967.33
2018-12-09T00:49:52.905Z,967.37
2018-12-09T00:50:53.053Z,967.25
2018-12-09T00:51:53.202Z,967.24
2018-12-09T00:52:53.344Z,967.25
2018-12-09T00:53:53.489Z,967.31
2018-12-09T00:54:53.636Z,967.18
2018-12-09T00:55:53.785Z,967.30
2018-12-09T00:56:53.930Z,967.26
2018-12-09T00:57:54.075Z,967.25
2018-12-09T00:58:54.222Z,967.25
2018-12-09T00:59:54.369Z,967.29
2018-12-09T01:00:54.515Z,967.23
2018-12-09T01:01:54.663Z,967.21
2018-12-09T01:02:54.815Z,967.32
2018-12-09T01:03:54.956Z,967.27
2018-12-09T01:04:55.103Z,967.30
2018-12-09T01:05:55.252Z,967.33
2018-12-09T01:06:55.399Z,967.33
2018-12-09T01:07:55.546Z,967.23
2018-12-09T01:08:55.693Z,967.29
2018-12-09T01:09:55.841Z,967.22
2018-12-09T01:10:55.991Z,967.21
2018-12-09T01:11:56.135Z,967.18
2018-12-09T01:12:56.286Z,967.22
2018-12-09T01:13:56.427Z,967.18
2018-12-09T01:14:56.575Z,967.15
2018-12-09T01:15:56.719Z,967.15
2018-12-09T01:16:56.866Z,967.16
2018-12-09T01:17:57.014Z,967.16
2018-12-09T01:18:57.160Z,967.13
2018-12-09T01:19:57.307Z,967.12
2018-12-09T01:20:57.452Z,967.21
2018-12-09T01:21:57.599Z,967.23
2018-12-09T01:22:57.747Z,967.24
2018-12-09T01:23:57.895Z,967.16
2018-12-09T01:24:58.039Z,967.12
2018-12-09T01:25:58.187Z,967.04
2018-12-09T01:26:58.331Z,967.15
2018-12-09T01:27:58.479Z,967.12
2018-12-09T01:28:58.625Z,967.20
2018-12-09T01:29:58.770Z,967.15
2018-12-09T01:30:58.919Z,967.21
2018-12-09T01:31:59.068Z,967.14
2018-12-09T01:32:59.204Z,967.18
2018-12-09T01:33:59.350Z,967.21
2018-12-09T01:34:59.495Z,967.24
2018-12-09T01:35:59.642Z,967.23
2018-12-09T01:36:59.791Z,967.25
2018-12-09T01:37:59.938Z,967.16
2018-12-09T01:39:00.084Z,967.16
2018-12-09T01:40:00.232Z,967.19
2018-12-09T01:41:00.379Z,967.24
2018-12-09T01:42:00.523Z,967.24
2018-12-09T01:43:00.672Z,967.24
2018-12-09T01:44:00.816Z,967.34
2018-12-09T01:45:00.966Z,967.53
2018-12-09T01:46:01.110Z,967.52
2018-12-09T01:47:01.267Z,967.59
2018-12-09T01:48:01.400Z,967.75
2018-12-09T01:49:01.548Z,967.88
2018-12-09T01:50:01.692Z,968.05
2018-12-09T01:51:01.840Z,968.22
2018-12-09T01:52:01.990Z,968.17
2018-12-09T01:53:02.139Z,968.14
2018-12-09T01:54:02.285Z,968.10
2018-12-09T01:55:02.432Z,968.12
2018-12-09T01:56:02.579Z,968.13
2018-12-09T01:57:02.730Z,968.12
2018-12-09T01:58:02.869Z,968.02
2018-12-09T01:59:03.018Z,967.86
2018-12-09T02:00:03.162Z,967.93
2018-12-09T02:01:03.308Z,967.73
2018-12-09T02:02:03.453Z,967.81
2018-12-09T02:03:03.602Z,967.75
2018-12-09T02:04:03.749Z,967.64
2018-12-09T02:05:03.892Z,967.58
2018-12-09T02:06:04.034Z,967.40
2018-12-09T02:07:04.181Z,967.33
2018-12-09T02:08:04.324Z,967.36
2018-12-09T02:09:04.472Z,967.37
2018-12-09T02:10:04.613Z,967.30
2018-12-09T02:11:04.758Z,967.44
2018-12-09T02:12:04.904Z,967.45
2018-12-09T02:13:05.050Z,967.42
2018-12-09T02:14:05.197Z,967.44
2018-12-09T02:15:05.341Z,967.46
2018-12-09T02:16:05.486Z,967.49
2018-12-09T02:17:05.632Z,967.59
2018-12-09T02:18:05.778Z,967.43
2018-12-09T02:19:05.922Z,967.47
2018-12-09T02:20:06.068Z,967.49
2018-12-09T02:21:06.214Z,967.39
2018-12-09T02:22:06.363Z,967.41
2018-12-09T02:23:06.510Z,967.44
2018-12-09T02:24:06.648Z,967.39
2018-12-09T02:25:06.792Z,967.46
2018-12-09T02:26:06.940Z,967.50
2018-12-09T02:27:07.084Z,967.43
2018-12-09T02:28:07.228Z,967.50
2018-12-09T02:29:07.374Z,967.43
2018-12-09T02:30:07.519Z,967.51
2018-12-09T02:31:07.665Z,967.48
2018-12-09T02:32:07.808Z,967.58
2018-12-09T02:33:07.958Z,967.65
2018-12-09T02:34:08.101Z,967.49
2018-12-09T02:35:08.245Z,967.58
2018-12-09T02:36:08.391Z,967.63
2018-12-09T02:37:08.534Z,967.52
2018-12-09T02:38:08.681Z,967.53
2018-12-09T02:39:08.832Z,967.47
2018-12-09T02:40:08.976Z,967.53
2018-12-09T02:41:09.117Z,967.49
2018-12-09T02:42:09.263Z,967.47
2018-12-09T02:43:09.407Z,967.46
2018-12-09T02:44:09.552Z,967.46
2018-12-09T02:45:09.701Z,967.48
2018-12-09T02:46:09.847Z,967.45
2018-12-09T02:47:09.987Z,967.42
2018-12-09T02:48:10.132Z,967.43
2018-12-09T02:49:10.280Z,967.44
2018-12-09T02:50:10.422Z,967.45
2018-12-09T02:51:10.569Z,967.55
2018-12-09T02:52:10.713Z,967.46
2018-12-09T02:53:10.860Z,967.43
2018-12-09T02:54:11.006Z,967.45
2018-12-09T02:55:11.151Z,967.32
2018-12-09T02:56:11.294Z,967.45
2018-12-09T02:57:11.446Z,967.35
2018-12-09T02:58:11.583Z,967.46
2018-12-09T02:59:11.732Z,967.42
2018-12-09T03:00:11.877Z,967.42
2018-12-09T03:01:12.022Z,967.37
2018-12-09T03:02:12.172Z,967.31
2018-12-09T03:03:12.310Z,967.23
2018-12-09T03:04:12.457Z,967.28
2018-12-09T03:05:12.603Z,967.28
2018-12-09T03:06:12.779Z,967.29
2018-12-09T03:07:12.893Z,967.41
2018-12-09T03:08:13.039Z,967.40
2018-12-09T03:09:13.184Z,967.41
2018-12-09T03:10:13.330Z,967.42
2018-12-09T03:11:13.477Z,967.46
2018-12-09T03:12:13.620Z,967.48
2018-12-09T03:13:13.768Z,967.53
2018-12-09T03:14:13.916Z,967.59
2018-12-09T03:15:14.063Z,967.62
2018-12-09T03:16:14.205Z,967.63
2018-12-09T03:17:14.352Z,967.65
2018-12-09T03:18:14.494Z,967.74
2018-12-09T03:19:14.642Z,967.77
2018-12-09T03:20:14.789Z,967.76
2018-12-09T03:21:14.934Z,967.74
2018-12-09T03:22:15.081Z,967.89
2018-12-09T03:23:15.225Z,967.88
2018-12-09T03:24:15.371Z,967.98
2018-12-09T03:25:15.517Z,967.98
2018-12-09T03:26:15.664Z,968.00
2018-12-09T03:27:15.809Z,968.03
2018-12-09T03:28:15.954Z,967.99
2018-12-09T03:29:16.098Z,968.04
2018-12-09T03:30:16.260Z,968.08
2018-12-09T03:31:16.390Z,968.11
2018-12-09T03:32:16.550Z,968.16
2018-12-09T03:33:16.680Z,968.20
2018-12-09T03:34:16.840Z,968.29
2018-12-09T03:35:16.977Z,968.33
2018-12-09T03:36:17.118Z,968.19
2018-12-09T03:37:17.262Z,968.02
2018-12-09T03:38:17.409Z,968.04
2018-12-09T03:39:17.556Z,968.06
2018-12-09T03:40:17.701Z,967.93
2018-12-09T03:41:17.849Z,967.97
2018-12-09T03:42:17.994Z,967.98
2018-12-09T03:43:18.141Z,968.01
2018-12-09T03:44:18.285Z,968.03
2018-12-09T03:45:18.428Z,968.08
2018-12-09T03:46:18.575Z,968.08
2018-12-09T03:47:18.721Z,968.15
2018-12-09T03:48:18.866Z,968.14
2018-12-09T03:49:19.015Z,968.07
2018-12-09T03:50:19.157Z,968.11
2018-12-09T03:51:19.305Z,968.20
2018-12-09T03:52:19.446Z,968.19
2018-12-09T03:53:19.596Z,968.09
2018-12-09T03:54:19.740Z,968.12
2018-12-09T03:55:19.893Z,968.15
2018-12-09T03:56:20.060Z,968.22
2018-12-09T03:57:20.175Z,968.38
2018-12-09T03:58:20.322Z,968.50
2018-12-09T03:59:20.466Z,968.33
2018-12-09T04:00:20.617Z,968.16
2018-12-09T04:01:20.760Z,968.17
2018-12-09T04:02:20.904Z,968.10
2018-12-09T04:03:21.047Z,968.03
2018-12-09T04:04:21.191Z,968.12
2018-12-09T04:05:21.337Z,968.08
2018-12-09T04:06:21.482Z,968.04
2018-12-09T04:07:21.628Z,968.12
2018-12-09T04:08:21.775Z,968.13
2018-12-09T04:09:21.919Z,968.16
2018-12-09T04:10:22.063Z,968.06
2018-12-09T04:11:22.209Z,968.07
2018-12-09T04:12:22.356Z,968.07
2018-12-09T04:13:22.502Z,968.11
2018-12-09T04:14:22.653Z,968.11
2018-12-09T04:15:22.792Z,968.12
2018-12-09T04:16:22.937Z,968.15
2018-12-09T04:17:23.080Z,968.20
2018-12-09T04:18:23.224Z,968.16
2018-12-09T04:19:23.372Z,968.21
2018-12-09T04:20:23.515Z,968.19
2018-12-09T04:21:23.660Z,968.14
2018-12-09T04:22:23.805Z,968.07
2018-12-09T04:23:23.950Z,968.15
2018-12-09T04:24:24.096Z,968.08
2018-12-09T04:25:24.245Z,968.13
2018-12-09T04:26:24.392Z,968.13
2018-12-09T04:27:24.546Z,968.03
2018-12-09T04:28:24.682Z,968.12
2018-12-09T04:29:24.826Z,968.12
2018-12-09T04:30:24.971Z,968.05
2018-12-09T04:31:25.112Z,967.97
2018-12-09T04:32:25.260Z,968.04
2018-12-09T04:33:25.402Z,968.04
2018-12-09T04:34:25.550Z,968.06
2018-12-09T04:35:25.697Z,968.09
2018-12-09T04:36:25.835Z,968.03
2018-12-09T04:37:25.983Z,968.09
2018-12-09T04:38:26.130Z,968.06
2018-12-09T04:39:26.276Z,968.07
2018-12-09T04:40:26.421Z,968.09
2018-12-09T04:41:26.568Z,968.14
2018-12-09T04:42:26.713Z,968.17
2018-12-09T04:43:26.858Z,968.17
2018-12-09T04:44:27.003Z,968.16
2018-12-09T04:45:27.146Z,968.13
2018-12-09T04:46:27.291Z,968.15
2018-12-09T04:47:27.438Z,968.14
2018-12-09T04:48:27.581Z,968.17
2018-12-09T04:49:27.727Z,968.10
2018-12-09T04:50:27.872Z,968.15
2018-12-09T04:51:28.016Z,968.22
2018-12-09T04:52:28.160Z,968.22
2018-12-09T04:53:28.305Z,968.33
2018-12-09T04:54:28.450Z,968.37
2018-12-09T04:55:28.596Z,968.36
2018-12-09T04:56:28.745Z,968.40
2018-12-09T04:57:28.889Z,968.38
2018-12-09T04:58:29.032Z,968.45
2018-12-09T04:59:29.176Z,968.48
2018-12-09T05:00:29.325Z,968.50
2018-12-09T05:01:29.469Z,968.49
2018-12-09T05:02:29.614Z,968.45
2018-12-09T05:03:29.766Z,968.42
2018-12-09T05:04:29.910Z,968.40
2018-12-09T05:05:30.055Z,968.37
2018-12-09T05:06:30.198Z,968.37
2018-12-09T05:07:30.346Z,968.39
2018-12-09T05:08:30.488Z,968.42
2018-12-09T05:09:30.634Z,968.46
2018-12-09T05:10:30.782Z,968.41
2018-12-09T05:11:30.932Z,968.46
2018-12-09T05:12:31.072Z,968.50
2018-12-09T05:13:31.217Z,968.55
2018-12-09T05:14:31.363Z,968.52
2018-12-09T05:15:31.511Z,968.56
2018-12-09T05:16:31.663Z,968.63
2018-12-09T05:17:31.806Z,968.59
2018-12-09T05:18:31.950Z,968.64
2018-12-09T05:19:32.096Z,968.63
2018-12-09T05:20:32.240Z,968.61
2018-12-09T05:21:32.384Z,968.67
2018-12-09T05:22:32.528Z,968.68
2018-12-09T05:23:32.675Z,968.64
2018-12-09T05:24:32.822Z,968.67
2018-12-09T05:25:32.968Z,968.68
2018-12-09T05:26:33.113Z,968.71
2018-12-09T05:27:33.259Z,968.72
2018-12-09T05:28:33.404Z,968.72
2018-12-09T05:29:33.552Z,968.71
2018-12-09T05:30:33.696Z,968.75
2018-12-09T05:31:33.845Z,968.76
2018-12-09T05:32:33.989Z,968.87
2018-12-09T05:33:34.137Z,968.78
2018-12-09T05:34:34.275Z,968.75
2018-12-09T05:35:34.430Z,968.78
2018-12-09T05:36:34.574Z,968.78
2018-12-09T05:37:34.723Z,968.79
2018-12-09T05:38:34.867Z,968.78
2018-12-09T05:39:35.013Z,968.88
2018-12-09T05:40:35.158Z,968.92
2018-12-09T05:41:35.304Z,968.91
2018-12-09T05:42:35.449Z,968.92
2018-12-09T05:43:35.593Z,968.97
2018-12-09T05:44:35.755Z,968.98
2018-12-09T05:45:35.899Z,969.07
2018-12-09T05:46:36.046Z,969.18
2018-12-09T05:47:36.192Z,969.15
2018-12-09T05:48:36.335Z,969.03
2018-12-09T05:49:36.482Z,969.03
2018-12-09T05:50:36.627Z,969.07
2018-12-09T05:51:36.771Z,969.02
2018-12-09T05:52:36.920Z,968.95
2018-12-09T05:53:37.066Z,969.01
2018-12-09T05:54:37.210Z,968.98
2018-12-09T05:55:37.353Z,969.06
2018-12-09T05:56:37.502Z,969.08
2018-12-09T05:57:37.645Z,969.00
2018-12-09T05:58:37.798Z,969.02
2018-12-09T05:59:37.940Z,969.02
2018-12-09T06:00:38.085Z,969.08
2018-12-09T06:01:38.231Z,969.13
2018-12-09T06:02:38.375Z,969.04
2018-12-09T06:03:38.520Z,969.09
2018-12-09T06:04:38.666Z,969.09
2018-12-09T06:05:38.812Z,969.10
2018-12-09T06:06:40.289Z,969.13
2018-12-09T06:07:39.108Z,969.20
2018-12-09T06:08:39.254Z,969.16
2018-12-09T06:09:39.396Z,969.18
2018-12-09T06:10:39.539Z,969.16
2018-12-09T06:11:39.686Z,969.26
2018-12-09T06:12:39.831Z,969.22
2018-12-09T06:13:39.980Z,969.13
2018-12-09T06:14:40.126Z,969.21
2018-12-09T06:15:40.297Z,969.29
2018-12-09T06:16:40.418Z,969.29
2018-12-09T06:17:40.564Z,969.35
2018-12-09T06:18:40.713Z,969.32
2018-12-09T06:19:40.860Z,969.28
2018-12-09T06:20:41.003Z,969.30
2018-12-09T06:21:41.152Z,969.28
2018-12-09T06:22:41.298Z,969.28
2018-12-09T06:23:41.442Z,969.32
2018-12-09T06:24:41.589Z,969.34
2018-12-09T06:25:41.734Z,969.37
2018-12-09T06:26:41.880Z,969.30
2018-12-09T06:27:42.025Z,969.36
2018-12-09T06:28:42.169Z,969.31
2018-12-09T06:29:42.315Z,969.33
2018-12-09T06:30:42.461Z,969.26
2018-12-09T06:31:42.605Z,969.36
2018-12-09T06:32:42.751Z,969.36
2018-12-09T06:33:42.898Z,969.43
2018-12-09T06:34:43.043Z,969.44
2018-12-09T06:35:43.186Z,969.45
2018-12-09T06:36:43.331Z,969.45
2018-12-09T06:37:43.476Z,969.47
2018-12-09T06:38:43.623Z,969.49
2018-12-09T06:39:43.770Z,969.49
2018-12-09T06:40:43.916Z,969.37
2018-12-09T06:41:44.062Z,969.51
2018-12-09T06:42:44.209Z,969.44
2018-12-09T06:43:44.354Z,969.50
2018-12-09T06:44:44.500Z,969.55
2018-12-09T06:45:44.645Z,969.46
2018-12-09T06:46:44.793Z,969.55
2018-12-09T06:47:44.991Z,969.55
2018-12-09T06:48:45.081Z,969.59
2018-12-09T06:49:45.226Z,969.62
2018-12-09T06:50:45.372Z,969.60
2018-12-09T06:51:45.520Z,969.59
2018-12-09T06:52:45.667Z,969.54
2018-12-09T06:53:45.815Z,969.59
2018-12-09T06:54:45.960Z,969.61
2018-12-09T06:55:46.109Z,969.64
2018-12-09T06:56:46.256Z,969.60
2018-12-09T06:57:46.403Z,969.73
2018-12-09T06:58:46.547Z,969.65
2018-12-09T06:59:46.692Z,969.61
2018-12-09T07:00:46.837Z,969.75
2018-12-09T07:01:46.983Z,969.61
2018-12-09T07:02:47.130Z,969.71
2018-12-09T07:03:47.275Z,969.69
2018-12-09T07:04:47.422Z,969.75
2018-12-09T07:05:47.570Z,969.85
2018-12-09T07:06:47.715Z,969.84
2018-12-09T07:07:47.860Z,969.80
2018-12-09T07:08:48.008Z,969.85
2018-12-09T07:09:48.154Z,969.84
2018-12-09T07:10:48.300Z,969.83
2018-12-09T07:11:48.445Z,969.75
2018-12-09T07:12:48.589Z,969.86
2018-12-09T07:13:48.735Z,969.91
2018-12-09T07:14:48.883Z,969.89
2018-12-09T07:15:49.027Z,969.91
2018-12-09T07:16:49.172Z,969.81
2018-12-09T07:17:49.319Z,969.87
2018-12-09T07:18:49.465Z,969.85
2018-12-09T07:19:49.610Z,969.91
2018-12-09T07:20:49.757Z,969.91
2018-12-09T07:21:49.903Z,969.87
2018-12-09T07:22:50.052Z,969.89
2018-12-09T07:23:50.202Z,969.98
2018-12-09T07:24:50.324Z,969.98
2018-12-09T07:25:50.474Z,969.90
2018-12-09T07:26:50.620Z,969.95
2018-12-09T07:27:50.770Z,969.95
2018-12-09T07:28:51.018Z,970.12
2018-12-09T07:29:51.057Z,970.08
2018-12-09T07:30:51.205Z,970.09
2018-12-09T07:31:51.352Z,970.08
2018-12-09T07:32:51.499Z,970.12
2018-12-09T07:33:51.646Z,970.16
2018-12-09T07:34:51.790Z,970.10
2018-12-09T07:35:51.938Z,970.16
2018-12-09T07:36:52.082Z,970.27
2018-12-09T07:37:52.228Z,970.24
2018-12-09T07:38:52.372Z,970.23
2018-12-09T07:39:52.522Z,970.26
2018-12-09T07:40:54.217Z,970.26
2018-12-09T07:41:52.814Z,970.40
2018-12-09T07:42:52.961Z,970.19
2018-12-09T07:43:53.106Z,970.24
2018-12-09T07:44:53.249Z,970.37
2018-12-09T07:45:53.396Z,970.35
2018-12-09T07:46:53.546Z,970.34
2018-12-09T07:47:53.694Z,970.45
2018-12-09T07:48:53.838Z,970.47
2018-12-09T07:49:53.981Z,970.57
2018-12-09T07:50:54.126Z,970.51
2018-12-09T07:51:54.273Z,970.54
2018-12-09T07:52:54.419Z,970.47
2018-12-09T07:53:54.565Z,970.40
2018-12-09T07:54:54.711Z,970.46
2018-12-09T07:55:54.861Z,970.42
2018-12-09T07:56:55.003Z,970.53
2018-12-09T07:57:56.681Z,970.54
2018-12-09T07:58:55.297Z,970.58
2018-12-09T07:59:55.445Z,970.56
2018-12-09T08:00:55.590Z,970.47
2018-12-09T08:01:55.734Z,970.50
2018-12-09T08:02:55.879Z,970.50
2018-12-09T08:03:56.022Z,970.53
2018-12-09T08:04:56.170Z,970.55
2018-12-09T08:05:56.318Z,970.57
2018-12-09T08:06:56.461Z,970.61
2018-12-09T08:07:56.607Z,970.56
2018-12-09T08:08:57.029Z,970.59
2018-12-09T08:09:56.897Z,970.63
2018-12-09T08:10:57.046Z,970.61
2018-12-09T08:11:57.191Z,970.64
2018-12-09T08:12:57.336Z,970.66
2018-12-09T08:13:57.482Z,970.68
2018-12-09T08:14:57.627Z,970.59
2018-12-09T08:15:57.773Z,970.66
2018-12-09T08:16:57.920Z,970.63
2018-12-09T08:17:58.095Z,970.59
2018-12-09T08:18:58.211Z,970.65
2018-12-09T08:19:58.355Z,970.65
2018-12-09T08:20:58.498Z,970.67
2018-12-09T08:21:58.646Z,970.65
2018-12-09T08:22:58.794Z,970.66
2018-12-09T08:23:58.942Z,970.69
2018-12-09T08:24:59.085Z,970.71
2018-12-09T08:25:59.232Z,970.71
2018-12-09T08:26:59.380Z,970.69
2018-12-09T08:27:59.527Z,970.69
2018-12-09T08:28:59.673Z,970.69
2018-12-09T08:29:59.820Z,970.69
2018-12-09T08:30:59.967Z,970.78
2018-12-09T08:32:00.112Z,970.77
2018-12-09T08:33:00.267Z,970.84
2018-12-09T08:34:00.407Z,970.75
2018-12-09T08:35:00.553Z,970.78
2018-12-09T08:36:00.699Z,970.84
2018-12-09T08:37:00.846Z,970.81
2018-12-09T08:38:00.995Z,970.84
2018-12-09T08:39:01.141Z,970.88
2018-12-09T08:40:01.286Z,970.80
2018-12-09T08:41:01.432Z,970.89
2018-12-09T08:42:01.582Z,970.80
2018-12-09T08:43:01.728Z,970.78
2018-12-09T08:44:01.878Z,970.80
2018-12-09T08:45:02.020Z,970.79
2018-12-09T08:46:02.166Z,970.79
2018-12-09T08:47:02.314Z,970.81
2018-12-09T08:48:02.461Z,970.78
2018-12-09T08:49:02.608Z,970.89
2018-12-09T08:50:02.758Z,970.82
2018-12-09T08:51:02.907Z,970.80
2018-12-09T08:52:03.051Z,970.84
2018-12-09T08:53:03.199Z,970.82
2018-12-09T08:54:03.346Z,970.84
2018-12-09T08:55:03.490Z,970.82
2018-12-09T08:56:03.634Z,970.86
2018-12-09T08:57:03.781Z,970.88
2018-12-09T08:58:03.925Z,970.97
2018-12-09T08:59:05.720Z,971.02
2018-12-09T09:00:04.220Z,971.01
2018-12-09T09:01:04.370Z,971.06
2018-12-09T09:02:04.515Z,971.03
2018-12-09T09:03:04.660Z,971.10
2018-12-09T09:04:04.805Z,971.14
2018-12-09T09:05:04.955Z,970.93
2018-12-09T09:06:05.103Z,970.92
2018-12-09T09:07:05.247Z,971.00
2018-12-09T09:08:05.398Z,971.04
2018-12-09T09:09:05.542Z,970.98
2018-12-09T09:10:05.689Z,971.05
2018-12-09T09:11:05.842Z,971.04
2018-12-09T09:12:05.979Z,971.03
2018-12-09T09:13:06.131Z,971.12
2018-12-09T09:14:06.277Z,971.09
2018-12-09T09:15:06.424Z,971.13
2018-12-09T09:16:06.570Z,971.13
2018-12-09T09:17:06.716Z,971.13
2018-12-09T09:18:06.865Z,971.15
2018-12-09T09:19:07.012Z,971.20
2018-12-09T09:20:07.159Z,971.26
2018-12-09T09:21:07.308Z,971.19
2018-12-09T09:22:07.456Z,971.27
2018-12-09T09:23:07.602Z,971.23
2018-12-09T09:24:07.752Z,971.26
2018-12-09T09:25:07.893Z,971.27
2018-12-09T09:26:08.043Z,971.29
2018-12-09T09:27:08.197Z,971.31
2018-12-09T09:28:08.342Z,971.29
2018-12-09T09:29:08.490Z,971.32
2018-12-09T09:30:08.649Z,971.28
2018-12-09T09:31:08.803Z,971.33
2018-12-09T09:32:08.951Z,971.37
2018-12-09T09:33:09.098Z,971.38
2018-12-09T09:34:09.242Z,971.42
2018-12-09T09:35:09.393Z,971.44
2018-12-09T09:36:09.536Z,971.40
2018-12-09T09:37:09.683Z,971.44
2018-12-09T09:38:09.831Z,971.49
2018-12-09T09:39:09.978Z,971.41
2018-12-09T09:40:10.123Z,971.45
2018-12-09T09:41:10.270Z,971.45
2018-12-09T09:42:10.420Z,971.47
2018-12-09T09:43:10.574Z,971.43
2018-12-09T09:44:10.721Z,971.52
2018-12-09T09:45:10.867Z,971.54
2018-12-09T09:46:11.013Z,971.44
2018-12-09T09:47:11.175Z,971.41
2018-12-09T09:48:11.329Z,971.46
2018-12-09T09:49:11.478Z,971.45
2018-12-09T09:50:12.196Z,971.47
2018-12-09T09:51:11.807Z,971.41
2018-12-09T09:52:11.947Z,971.41
2018-12-09T09:53:12.096Z,971.45
2018-12-09T09:54:12.241Z,971.41
2018-12-09T09:55:12.390Z,971.34
2018-12-09T09:56:12.538Z,971.31
2018-12-09T09:57:12.684Z,971.30
2018-12-09T09:58:12.874Z,971.28
2018-12-09T09:59:13.029Z,971.34
2018-12-09T10:00:13.174Z,971.39
2018-12-09T10:01:13.324Z,971.38
2018-12-09T10:02:13.467Z,971.40
2018-12-09T10:03:13.618Z,971.42
2018-12-09T10:04:13.767Z,971.42
2018-12-09T10:05:13.920Z,971.43
2018-12-09T10:06:14.071Z,971.43
2018-12-09T10:07:14.217Z,971.45
2018-12-09T10:08:14.407Z,971.46
2018-12-09T10:09:14.517Z,971.49
2018-12-09T10:10:14.662Z,971.53
2018-12-09T10:11:14.806Z,971.46
2018-12-09T10:12:14.964Z,971.55
2018-12-09T10:13:15.113Z,971.47
2018-12-09T10:14:15.262Z,971.45
2018-12-09T10:15:15.407Z,971.43
2018-12-09T10:16:15.582Z,971.51
2018-12-09T10:17:15.774Z,971.57
2018-12-09T10:18:15.941Z,971.55
2018-12-09T10:19:16.100Z,971.64
2018-12-09T10:20:16.258Z,971.58
2018-12-09T10:21:16.401Z,971.58
2018-12-09T10:22:16.561Z,971.58
2018-12-09T10:23:16.708Z,971.56
2018-12-09T10:24:16.864Z,971.59
2018-12-09T10:25:17.022Z,971.63
2018-12-09T10:26:17.179Z,971.61
2018-12-09T10:27:17.330Z,971.53
2018-12-09T10:28:17.507Z,971.48
2018-12-09T10:29:17.656Z,971.61
2018-12-09T10:30:17.873Z,971.64
2018-12-09T10:31:17.936Z,971.60
2018-12-09T10:32:18.052Z,971.66
2018-12-09T10:33:18.213Z,971.61
2018-12-09T10:34:18.374Z,971.60
2018-12-09T10:35:18.520Z,971.60
2018-12-09T10:36:18.677Z,971.65
2018-12-09T10:37:18.840Z,971.63
2018-12-09T10:38:18.997Z,971.58
2018-12-09T10:39:19.146Z,971.71
2018-12-09T10:40:19.297Z,971.64
2018-12-09T10:41:19.443Z,971.62
2018-12-09T10:42:19.592Z,971.57
2018-12-09T10:43:19.741Z,971.60
2018-12-09T10:44:19.888Z,971.64
2018-12-09T10:45:20.035Z,971.62
2018-12-09T10:46:21.766Z,971.68
2018-12-09T10:47:21.303Z,971.65
2018-12-09T10:48:20.524Z,971.62
2018-12-09T10:49:20.673Z,971.65
2018-12-09T10:50:20.824Z,971.70
2018-12-09T10:51:20.976Z,971.79
2018-12-09T10:52:21.130Z,971.63
2018-12-09T10:53:21.403Z,971.68
2018-12-09T10:54:21.435Z,971.77
2018-12-09T10:55:21.581Z,971.70
2018-12-09T10:56:21.741Z,971.78
2018-12-09T10:57:21.915Z,971.62
2018-12-09T10:58:22.064Z,971.81
2018-12-09T10:59:22.222Z,971.77
2018-12-09T11:00:22.382Z,971.68
2018-12-09T11:01:22.542Z,971.62
2018-12-09T11:02:22.687Z,971.69
2018-12-09T11:03:22.920Z,971.65
2018-12-09T11:04:22.955Z,971.62
2018-12-09T11:05:23.109Z,971.64
2018-12-09T11:06:23.377Z,971.66
2018-12-09T11:07:23.420Z,971.61
2018-12-09T11:08:23.601Z,971.58
2018-12-09T11:09:23.765Z,971.57
2018-12-09T11:10:23.912Z,971.61
2018-12-09T11:11:24.095Z,971.52
2018-12-09T11:12:24.288Z,971.61
2018-12-09T11:13:24.488Z,971.65
2018-12-09T11:14:24.701Z,971.59
2018-12-09T11:15:24.801Z,971.61
2018-12-09T11:16:24.887Z,971.56
2018-12-09T11:17:24.946Z,971.63
2018-12-09T11:18:25.097Z,971.51
2018-12-09T11:19:25.281Z,971.61
2018-12-09T11:20:25.483Z,971.63
2018-12-09T11:21:30.578Z,971.64
2018-12-09T11:22:25.684Z,971.66
2018-12-09T11:23:25.871Z,971.69
2018-12-09T11:24:26.069Z,971.71
2018-12-09T11:25:26.344Z,971.60
2018-12-09T11:26:26.385Z,971.65
2018-12-09T11:27:26.639Z,971.61
2018-12-09T11:28:26.663Z,971.61
2018-12-09T11:29:26.838Z,971.68
2018-12-09T11:30:26.986Z,971.61
2018-12-09T11:31:27.146Z,971.63
2018-12-09T11:32:27.310Z,971.71
2018-12-09T11:33:27.456Z,971.73
2018-12-09T11:34:27.759Z,971.67
2018-12-09T11:35:27.796Z,971.75
2018-12-09T11:36:27.950Z,971.69
2018-12-09T11:37:28.109Z,971.74
2018-12-09T11:38:28.364Z,971.68
2018-12-09T11:39:28.393Z,971.68
2018-12-09T11:40:28.625Z,971.68
2018-12-09T11:41:28.670Z,971.61
2018-12-09T11:42:28.886Z,971.69
2018-12-09T11:43:28.965Z,971.68
2018-12-09T11:44:29.209Z,971.67
2018-12-09T11:45:29.344Z,971.61
2018-12-09T11:46:29.373Z,971.71
2018-12-09T11:47:29.529Z,971.68
2018-12-09T11:48:29.771Z,971.65
2018-12-09T11:49:29.885Z,971.69
2018-12-09T11:50:29.997Z,971.65
2018-12-09T11:51:30.159Z,971.61
2018-12-09T11:52:30.296Z,971.58
2018-12-09T11:53:30.446Z,971.64
2018-12-09T11:54:30.474Z,971.64
2018-12-09T11:55:30.652Z,971.59
2018-12-09T11:56:30.884Z,971.60
2018-12-09T11:57:31.019Z,971.63
2018-12-09T11:58:31.172Z,971.64
2018-12-09T11:59:31.311Z,971.69
2018-12-09T12:00:31.463Z,971.64
2018-12-09T12:01:31.575Z,971.65
2018-12-09T12:02:31.674Z,971.67
2018-12-09T12:03:31.726Z,971.65
2018-12-09T12:04:31.981Z,971.69
2018-12-09T12:05:32.155Z,971.66
2018-12-09T12:06:32.214Z,971.65
2018-12-09T12:07:32.501Z,971.65
2018-12-09T12:08:32.656Z,971.64
2018-12-09T12:09:32.688Z,971.65
2018-12-09T12:10:32.923Z,971.71
2018-12-09T12:11:32.966Z,971.74
2018-12-09T12:12:33.133Z,971.68
2018-12-09T12:13:33.321Z,971.75
2018-12-09T12:14:33.596Z,971.70
2018-12-09T12:15:33.760Z,971.69
2018-12-09T12:16:33.852Z,971.70
2018-12-09T12:17:34.028Z,971.71
2018-12-09T12:18:34.109Z,971.79
2018-12-09T12:19:34.298Z,971.87
2018-12-09T12:20:34.529Z,972.02
2018-12-09T12:21:34.689Z,972.10
2018-12-09T12:22:34.874Z,972.18
2018-12-09T12:23:35.028Z,972.29
2018-12-09T12:24:35.157Z,972.32
2018-12-09T12:25:35.260Z,972.25
2018-12-09T12:26:35.354Z,972.22
2018-12-09T12:27:35.520Z,972.20
2018-12-09T12:28:35.632Z,972.18
2018-12-09T12:29:35.690Z,972.22
2018-12-09T12:30:35.886Z,972.21